Forside
METAR-TAF:

METAR-TAF

Lufthavne :

Moroni, Comorerne

Breddekreds: 11-32S, længdekreds: 043-16E, højde: 29 m

Aktuelle vejr

Denne rapport blev lavet for 1 time og 1 minutter siden, kl. 12:00 UTC
Vind 16 kt fra sydsydvest
Temperatur 30°C
Fugtighed 62%
Tryk 1015 hPa
Sigt 10 km eller mere
Spredte skyer i en højde af 2500 ft

METAR: FMCH 221200Z 21016KT 9999 SCT025 30/22 Q1015 NOSIG

Tid: 16:01 (13:01 UTC)

Vejrudsigter

Denne rapport blev lavet for 2 timer og 1 minutter siden, kl. 11:00 UTC
Foreløbig gælder fra 22 på 12 UTC til 23 på 18 UTC
Vind 13 kt fra sydvest
Sigt 10 km eller mere
Nogle få skyer i en højde af 2000 ft
Spredte skyer i en højde af 3000 ft
ændring
fra 22 på 16 UTC til 22 på 18 UTC
Vind 3 kt fra varierende retninger
ændring
fra 23 på 05 UTC til 23 på 07 UTC
Vind 12 kt fra sydsydvest

TAF: FMCH 221100Z 2212/2318 23013KT 9999 FEW020 SCT030 BECMG 2216/2218 VRB03KT BECMG 2305/2307 20012KT

Vejrobservationer og prognoser fra mere end 4000 lufthavne (METAR og TAF).

De gule og røde prikker repræsenterer de meteorologiske stationer.

Flyt musen over at se navnet på stationen.

Så klik over at se vejr observationer og prognoser.

At skifte det kort: Klik på de grønne knapper med et sort kors for at zoome ind; på den grønne knap med en bindestreg for at zoome ud; eller på de grønne pile for tilstødende kort.


METAR-TAF: